FZAA/FIH METAR and TAF weather

Enter ICAO airport designator
Station Type Date Time Source
FZAA METAR 2019/08/21 09:00 UTC NOAA

FZAA 210900Z 28010KT 6000 SCT020 25/19 Q1017 NOSIG


Station Type Date Time Source
FZAA Decoded METAR 2019/08/21 09:00 UTC NOAA

Station name not available
Aug 21, 2019 - 05:00 AM EDT / 2019.08.21 0900 UTC
Wind: from the W (280 degrees) at 12 MPH (10 KT):0
Visibility: 3 mile(s):0
Sky conditions: partly cloudy
Temperature: 77 F (25 C)
Dew Point: 66 F (19 C)
Relative Humidity: 69%
Pressure (altimeter): 30.03 in. Hg (1017 hPa)
ob: FZAA 210900Z 28010KT 6000 SCT020 25/19 Q1017 NOSIG
cycle: 9

Station Type Date Time Source
FZAA TAF 2019/08/21 06:03 UTC NOAA

TAF TAF FZAA 210500Z 2106/2212 21004KT 3000 BR SCT016
BECMG 2109/2111 34008KT 6000 NSW FEW022
BECMG 2205/2207 20006KT 3000 BR BKN016

Example: see airport list